• Join FlightAware (Why Join?)
  • Login
  • US Flag 
05:18AM EDT


 

Airport Tracker/Info


-or-


 

Live Flight TrackerFlight Track Log ✈ N627BT ✈ 28-Jun-2013 ✈ KFMY - KCRG

Flight Track Log - Related Links

Times and Time Zones

All times are in EDT time to prevent confusion due to time zone crossing. See the N627BT flight status page for this flight to view local times or setup timezone preferences in your user account.

Time Position Orientation Groundspeed Altitude Reporting Facility
EDT Latitude Longitude Course Direction KTS MPH feet Rate Location/Type
10:52AM 26.7925 -81.8594 354° North 129 148 3,100  Level Miami Center
10:53AM 26.8240 -81.8667 North  Level FlightAware Approximate
10:53AM 26.8233 -81.8703 343° North 124 143 3,600  Level Miami Center
10:54AM 26.8643 -81.8667 North  Level FlightAware Approximate
10:54AM 26.8583 -81.8833 342° North 124 143 4,000  Level Miami Center
10:55AM 26.9045 -81.8667 North  Level FlightAware Approximate
10:55AM 26.8892 -81.8964 339° North 129 148 4,400  Level Miami Center
10:56AM 26.9447 -81.8667 North  Level FlightAware Approximate
10:56AM 26.9219 -81.9164 331° Northwest 129 148 4,800  Level Miami Center
10:57AM 26.9847 -81.8705 354° North  Level FlightAware Approximate
10:57AM 26.9547 -81.9317 337° Northwest 141 162 5,100  Level Miami Center
10:58AM 27.0247 -81.8750 354° North  Level FlightAware Approximate
10:58AM 26.9900 -81.9378 351° North 141 162 5,400  Level Miami Center
10:59AM 27.0336 -81.9422 355° North 146 168 5,800 300 Climbing Miami Center
11:00AM 27.0711 -81.9461 355° North 141 162 6,100 300 Climbing Miami Center
11:01AM 27.1108 -81.9478 358° North 141 162 6,500 420 Climbing Miami Center
11:02AM 27.1503 -81.9519 355° North 141 162 7,000 420 Climbing Miami Center
11:03AM 27.1861 -81.9442 11° North 141 162 7,400 360 Climbing Miami Center
11:04AM 27.2261 -81.9342 13° North 141 162 7,800 300 Climbing Miami Center
11:05AM 27.2661 -81.9219 15° North 141 162 8,000 60 Climbing Miami Center
11:06AM 27.3083 -81.9097 14° North 146 168 8,000 60 Level Miami Center
11:07AM 27.3525 -81.9000 11° North 151 174 8,200 300 Climbing Miami Center
11:08AM 27.3942 -81.8972 North 151 174 8,600 360 Climbing Miami Center
11:09AM 27.4344 -81.8850 15° North 151 174 9,000 180 Climbing Miami Center
11:10AM 27.4764 -81.8750 12° North 146 168 9,000  Level Miami Center
11:11AM 27.5186 -81.8628 14° North 146 168 9,000  Level Miami Center
11:12AM 27.5550 -81.8342 35° Northeast 146 168 9,000  Level Miami Center
11:13AM 27.5936 -81.8100 29° Northeast 157 181 9,000  Level Miami Center
11:14AM 27.6297 -81.7858 31° Northeast 157 181 9,000  Level Miami Center
11:15AM 27.6681 -81.7639 27° Northeast 162 186 9,000  Level Miami Center
11:16AM 27.7203 -81.7592 North 157 181 9,000  Level Miami Center
11:19AM 27.8333 -81.7500 North 161 185 9,000  Level Orlando TRACON
11:20AM 27.8667 -81.7500 360° North 163 188 9,000  Level Orlando TRACON
11:21AM 27.9167 -81.7500 360° North 162 186 9,000  Level Orlando TRACON
11:22AM 27.9500 -81.7167 41° Northeast 168 193 9,000  Level Orlando TRACON
11:23AM 28.0000 -81.7000 16° North 164 189 9,000  Level Orlando TRACON
11:24AM 28.0333 -81.7000 360° North 161 185 9,000  Level Orlando TRACON
11:25AM 28.0833 -81.6833 16° North 161 185 9,000  Level Orlando TRACON
11:26AM 28.1333 -81.6833 360° North 161 185 9,000  Level Orlando TRACON
11:27AM 28.1667 -81.6833 360° North 161 185 9,000  Level Orlando TRACON
11:28AM 28.2167 -81.6833 360° North 162 186 9,000  Level Orlando TRACON
11:29AM 28.2667 -81.6833 360° North 164 189 9,000  Level Orlando TRACON
11:30AM 28.3167 -81.6667 16° North 163 188 9,000  Level Orlando TRACON
11:31AM 28.3500 -81.6667 360° North 164 189 9,000  Level Orlando TRACON
11:32AM 28.4000 -81.6667 360° North 163 188 9,000  Level Orlando TRACON
11:33AM 28.4500 -81.6500 16° North 163 188 9,000  Level Orlando TRACON
11:34AM 28.5000 -81.6500 360° North 162 186 9,000  Level Orlando TRACON
11:35AM 28.5333 -81.6500 360° North 162 186 9,000  Level Orlando TRACON
11:36AM 28.5833 -81.6500 360° North 161 185 9,000  Level Orlando TRACON
11:37AM 28.6333 -81.6333 16° North 163 188 9,000  Level Orlando TRACON
11:38AM 28.6667 -81.6333 360° North 161 185 9,000  Level Orlando TRACON
11:39AM 28.7167 -81.6333 360° North 161 185 9,000  Level Orlando TRACON
11:41AM 28.8219 -81.6319 North 163 188 9,000  Level Jacksonville Center
11:42AM 28.8700 -81.6264 North 162 186 9,000  Level Jacksonville Center
11:43AM 28.9158 -81.6211 North 161 185 9,000  Level Jacksonville Center
11:44AM 28.9575 -81.6231 358° North 161 185 9,000  Level Jacksonville Center
11:45AM 29.0056 -81.6178 North 159 183 9,000  Level Jacksonville Center
11:46AM 29.0472 -81.6122 North 161 185 9,000  Level Jacksonville Center
11:47AM 29.0931 -81.6094 North 161 185 9,000 -120 Level Jacksonville Center
11:48AM 29.1389 -81.6042 North 159 183 8,800 -240 Descending Jacksonville Center
11:49AM 29.1703 -81.5989 North 160 184 8,600 -360 Descending Jacksonville Center
11:50AM 29.2097 -81.5936 North 170 196 8,300 -480 Descending Jacksonville Center
11:50AM 29.2347 -81.5908 North 167 192 8,000 -480 Descending Jacksonville Center
11:51AM 29.2828 -81.5878 North 165 190 7,600 -420 Descending Jacksonville Center
11:52AM 29.3267 -81.5850 North 158 182 7,200 -420 Descending Jacksonville Center
11:53AM 29.3494 -81.5822 North 154 177 7,000 -180 Descending Jacksonville Center
11:54AM 29.3914 -81.5792 North 149 171 7,000  Level Jacksonville Center
11:55AM 29.4350 -81.5786 North 155 178 7,100  Climbing Jacksonville Center
11:56AM 29.4872 -81.5733 North 161 185 7,000 -60 Descending Jacksonville Center
11:57AM 29.5311 -81.5703 North 159 183 7,000  Level Jacksonville Center
11:58AM 29.5750 -81.5697 North 158 182 7,100  Climbing Jacksonville Center
11:59AM 29.6167 -81.5667 North 158 182 7,000  Descending Jacksonville Center
12:00PM 29.6583 -81.5614 North 158 182 7,100  Climbing Jacksonville Center
12:01PM 29.7208 -81.5558 North 162 186 7,100  Level Jacksonville Center
12:03PM 29.7750 -81.5525 North 162 186 7,100 -60 Level Jacksonville Center
12:04PM 29.8167 -81.5425 12° North 155 178 7,000 -180 Descending Jacksonville Center
12:05PM 29.8647 -81.5322 11° North 163 188 6,800 -300 Descending Jacksonville Center
12:06PM 29.9083 -81.5244 North 164 189 6,400 -480 Descending Jacksonville Center
12:07PM 29.9544 -81.5236 North 161 185 5,900 -600 Descending Jacksonville Center
12:08PM 29.9919 -81.5231 North 161 185 5,400 -540 Descending Jacksonville Center
12:09PM 30.0358 -81.5203 North 158 182 5,000 -420 Descending Jacksonville Center
12:10PM 30.0775 -81.5194 North 152 175 4,600 -420 Descending Jacksonville Center
12:11PM 30.1192 -81.5189 North 149 171 4,200 -540 Descending Jacksonville Center
12:12PM 30.1631 -81.5086 11° North 154 177 3,600 -600 Descending Jacksonville Center
12:13PM 30.2044 -81.4864 25° Northeast 156 180 3,100 -600 Descending Jacksonville Center
12:14PM 30.2442 -81.4764 12° North 153 176 2,400 -960 Descending Jacksonville Center
12:15PM 30.2881 -81.4900 345° North 163 188 1,200 -720 Descending Jacksonville Center
12:16PM 30.3256 -81.4800 13° North 140 161 1,000 -300 Descending Jacksonville Center
12:17PM 30.3567 -81.4747 North 122 140 700 -360 Descending Jacksonville Center
12:18PM 30.3486 -81.4964 247° West 57 66 300 -420 Descending Jacksonville Center